sensor_id;sensor_type;location;lat;lon;timestamp;P1;durP1;ratioP1;P2;durP2;ratioP2
20725;SDS011;10524;48.132;8.518;2023-06-19T00:02:02;9.40;;;8.50;;
20725;SDS011;10524;48.132;8.518;2023-06-19T00:04:28;8.68;;;7.78;;
20725;SDS011;10524;48.132;8.518;2023-06-19T00:06:54;9.02;;;8.13;;
20725;SDS011;10524;48.132;8.518;2023-06-19T00:09:19;9.05;;;8.15;;
20725;SDS011;10524;48.132;8.518;2023-06-19T00:11:45;9.15;;;8.25;;
20725;SDS011;10524;48.132;8.518;2023-06-19T00:14:11;8.95;;;8.15;;
20725;SDS011;10524;48.132;8.518;2023-06-19T00:16:36;8.65;;;7.85;;
20725;SDS011;10524;48.132;8.518;2023-06-19T00:19:02;8.50;;;7.55;;
20725;SDS011;10524;48.132;8.518;2023-06-19T00:21:28;8.45;;;7.57;;
20725;SDS011;10524;48.132;8.518;2023-06-19T00:23:55;8.68;;;7.88;;
20725;SDS011;10524;48.132;8.518;2023-06-19T00:26:20;8.05;;;7.25;;
20725;SDS011;10524;48.132;8.518;2023-06-19T00:28:50;8.75;;;7.85;;
20725;SDS011;10524;48.132;8.518;2023-06-19T00:31:16;8.43;;;7.65;;
20725;SDS011;10524;48.132;8.518;2023-06-19T00:33:43;8.90;;;8.00;;
20725;SDS011;10524;48.132;8.518;2023-06-19T00:36:12;8.40;;;7.60;;
20725;SDS011;10524;48.132;8.518;2023-06-19T00:38:39;9.68;;;7.80;;
20725;SDS011;10524;48.132;8.518;2023-06-19T00:41:04;9.10;;;7.75;;
20725;SDS011;10524;48.132;8.518;2023-06-19T00:43:31;9.88;;;6.38;;
20725;SDS011;10524;48.132;8.518;2023-06-19T00:45:57;7.40;;;6.70;;
20725;SDS011;10524;48.132;8.518;2023-06-19T00:48:23;7.82;;;5.65;;
20725;SDS011;10524;48.132;8.518;2023-06-19T00:50:51;6.70;;;5.68;;
20725;SDS011;10524;48.132;8.518;2023-06-19T00:53:17;8.02;;;5.38;;
20725;SDS011;10524;48.132;8.518;2023-06-19T00:55:44;5.22;;;4.72;;
20725;SDS011;10524;48.132;8.518;2023-06-19T00:58:11;6.07;;;5.05;;
20725;SDS011;10524;48.132;8.518;2023-06-19T01:00:37;5.63;;;5.13;;
20725;SDS011;10524;48.132;8.518;2023-06-19T01:03:02;5.60;;;5.00;;
20725;SDS011;10524;48.132;8.518;2023-06-19T01:05:29;6.55;;;5.10;;
20725;SDS011;10524;48.132;8.518;2023-06-19T01:10:55;7.40;;;5.00;;
20725;SDS011;10524;48.132;8.518;2023-06-19T01:13:27;5.30;;;4.80;;
20725;SDS011;10524;48.132;8.518;2023-06-19T01:16:10;6.80;;;4.60;;
20725;SDS011;10524;48.132;8.518;2023-06-19T01:18:37;5.75;;;4.35;;
20725;SDS011;10524;48.132;8.518;2023-06-19T01:21:10;4.88;;;4.22;;
20725;SDS011;10524;48.132;8.518;2023-06-19T01:23:40;4.75;;;4.15;;
20725;SDS011;10524;48.132;8.518;2023-06-19T01:26:07;4.70;;;3.90;;
20725;SDS011;10524;48.132;8.518;2023-06-19T01:28:34;4.85;;;3.85;;
20725;SDS011;10524;48.132;8.518;2023-06-19T01:31:02;4.20;;;3.80;;
20725;SDS011;10524;48.132;8.518;2023-06-19T01:33:31;4.13;;;3.50;;
20725;SDS011;10524;48.132;8.518;2023-06-19T01:35:58;4.10;;;3.67;;
20725;SDS011;10524;48.132;8.518;2023-06-19T01:38:26;5.78;;;3.92;;
20725;SDS011;10524;48.132;8.518;2023-06-19T01:40:54;4.40;;;3.90;;
20725;SDS011;10524;48.132;8.518;2023-06-19T01:43:21;5.75;;;3.47;;
20725;SDS011;10524;48.132;8.518;2023-06-19T01:45:48;5.43;;;3.97;;
20725;SDS011;10524;48.132;8.518;2023-06-19T01:48:14;4.20;;;3.80;;
20725;SDS011;10524;48.132;8.518;2023-06-19T01:50:41;4.18;;;3.78;;
20725;SDS011;10524;48.132;8.518;2023-06-19T01:53:10;4.03;;;3.60;;
20725;SDS011;10524;48.132;8.518;2023-06-19T01:55:36;3.90;;;3.55;;
20725;SDS011;10524;48.132;8.518;2023-06-19T01:58:02;4.38;;;3.63;;
20725;SDS011;10524;48.132;8.518;2023-06-19T02:00:28;7.43;;;3.60;;
20725;SDS011;10524;48.132;8.518;2023-06-19T02:02:54;5.30;;;3.78;;
20725;SDS011;10524;48.132;8.518;2023-06-19T02:05:19;7.13;;;3.90;;
20725;SDS011;10524;48.132;8.518;2023-06-19T02:07:45;4.55;;;3.60;;
20725;SDS011;10524;48.132;8.518;2023-06-19T02:10:10;4.10;;;3.70;;
20725;SDS011;10524;48.132;8.518;2023-06-19T02:12:36;4.65;;;3.90;;
20725;SDS011;10524;48.132;8.518;2023-06-19T02:15:02;6.22;;;3.90;;
20725;SDS011;10524;48.132;8.518;2023-06-19T02:17:28;4.20;;;3.80;;
20725;SDS011;10524;48.132;8.518;2023-06-19T02:19:54;4.05;;;3.65;;
20725;SDS011;10524;48.132;8.518;2023-06-19T02:22:19;4.30;;;3.63;;
20725;SDS011;10524;48.132;8.518;2023-06-19T02:24:45;3.70;;;3.30;;
20725;SDS011;10524;48.132;8.518;2023-06-19T02:27:12;4.50;;;3.45;;
20725;SDS011;10524;48.132;8.518;2023-06-19T02:29:38;3.60;;;3.30;;
20725;SDS011;10524;48.132;8.518;2023-06-19T02:32:03;4.60;;;3.35;;
20725;SDS011;10524;48.132;8.518;2023-06-19T02:34:29;3.70;;;3.40;;
20725;SDS011;10524;48.132;8.518;2023-06-19T02:36:55;3.50;;;3.20;;
20725;SDS011;10524;48.132;8.518;2023-06-19T02:39:21;3.42;;;3.13;;
20725;SDS011;10524;48.132;8.518;2023-06-19T02:41:46;3.70;;;3.40;;
20725;SDS011;10524;48.132;8.518;2023-06-19T02:44:12;4.15;;;3.35;;
20725;SDS011;10524;48.132;8.518;2023-06-19T02:46:39;3.22;;;2.92;;
20725;SDS011;10524;48.132;8.518;2023-06-19T02:49:04;3.28;;;2.97;;
20725;SDS011;10524;48.132;8.518;2023-06-19T02:51:30;3.30;;;3.00;;
20725;SDS011;10524;48.132;8.518;2023-06-19T02:53:55;3.47;;;3.17;;
20725;SDS011;10524;48.132;8.518;2023-06-19T02:56:21;3.63;;;3.33;;
20725;SDS011;10524;48.132;8.518;2023-06-19T02:58:47;4.18;;;2.90;;
20725;SDS011;10524;48.132;8.518;2023-06-19T03:01:13;3.42;;;3.13;;
20725;SDS011;10524;48.132;8.518;2023-06-19T03:03:38;3.30;;;3.00;;
20725;SDS011;10524;48.132;8.518;2023-06-19T03:06:06;3.88;;;3.25;;
20725;SDS011;10524;48.132;8.518;2023-06-19T03:08:33;3.35;;;3.05;;
20725;SDS011;10524;48.132;8.518;2023-06-19T03:10:59;3.50;;;3.20;;
20725;SDS011;10524;48.132;8.518;2023-06-19T03:13:25;3.45;;;3.15;;
20725;SDS011;10524;48.132;8.518;2023-06-19T03:15:50;4.03;;;3.35;;
20725;SDS011;10524;48.132;8.518;2023-06-19T03:18:16;5.68;;;3.25;;
20725;SDS011;10524;48.132;8.518;2023-06-19T03:20:41;5.78;;;4.00;;
20725;SDS011;10524;48.132;8.518;2023-06-19T03:23:07;5.63;;;4.28;;
20725;SDS011;10524;48.132;8.518;2023-06-19T03:25:33;5.63;;;3.95;;
20725;SDS011;10524;48.132;8.518;2023-06-19T03:28:00;6.20;;;4.45;;
20725;SDS011;10524;48.132;8.518;2023-06-19T03:30:27;5.68;;;4.50;;
20725;SDS011;10524;48.132;8.518;2023-06-19T03:32:53;5.80;;;5.18;;
20725;SDS011;10524;48.132;8.518;2023-06-19T03:35:19;6.22;;;5.22;;
20725;SDS011;10524;48.132;8.518;2023-06-19T03:37:44;6.30;;;5.30;;
20725;SDS011;10524;48.132;8.518;2023-06-19T03:40:10;7.15;;;5.40;;
20725;SDS011;10524;48.132;8.518;2023-06-19T03:42:39;7.35;;;6.20;;
20725;SDS011;10524;48.132;8.518;2023-06-19T03:45:05;10.48;;;5.63;;
20725;SDS011;10524;48.132;8.518;2023-06-19T03:47:31;6.18;;;5.57;;
20725;SDS011;10524;48.132;8.518;2023-06-19T03:49:57;6.30;;;5.63;;
20725;SDS011;10524;48.132;8.518;2023-06-19T03:52:22;8.10;;;5.18;;
20725;SDS011;10524;48.132;8.518;2023-06-19T03:54:48;6.45;;;5.40;;
20725;SDS011;10524;48.132;8.518;2023-06-19T03:57:14;5.63;;;5.13;;
20725;SDS011;10524;48.132;8.518;2023-06-19T03:59:40;8.02;;;5.70;;
20725;SDS011;10524;48.132;8.518;2023-06-19T04:02:05;8.32;;;5.30;;
20725;SDS011;10524;48.132;8.518;2023-06-19T04:04:31;6.18;;;5.57;;
20725;SDS011;10524;48.132;8.518;2023-06-19T04:06:57;6.30;;;5.68;;
20725;SDS011;10524;48.132;8.518;2023-06-19T04:09:24;7.38;;;5.82;;
20725;SDS011;10524;48.132;8.518;2023-06-19T04:11:50;6.80;;;6.07;;
20725;SDS011;10524;48.132;8.518;2023-06-19T04:14:15;7.80;;;6.00;;
20725;SDS011;10524;48.132;8.518;2023-06-19T04:16:41;9.10;;;6.72;;
20725;SDS011;10524;48.132;8.518;2023-06-19T04:19:07;7.60;;;6.63;;
20725;SDS011;10524;48.132;8.518;2023-06-19T04:21:32;7.65;;;6.82;;
20725;SDS011;10524;48.132;8.518;2023-06-19T04:23:58;7.50;;;6.80;;
20725;SDS011;10524;48.132;8.518;2023-06-19T04:26:24;7.28;;;6.57;;
20725;SDS011;10524;48.132;8.518;2023-06-19T04:28:50;10.40;;;7.07;;
20725;SDS011;10524;48.132;8.518;2023-06-19T04:31:15;8.32;;;6.88;;
20725;SDS011;10524;48.132;8.518;2023-06-19T04:33:44;8.38;;;7.20;;
20725;SDS011;10524;48.132;8.518;2023-06-19T04:36:10;8.85;;;7.93;;
20725;SDS011;10524;48.132;8.518;2023-06-19T04:38:36;7.50;;;6.80;;
20725;SDS011;10524;48.132;8.518;2023-06-19T04:41:02;8.65;;;7.75;;
20725;SDS011;10524;48.132;8.518;2023-06-19T04:43:27;11.57;;;8.20;;
20725;SDS011;10524;48.132;8.518;2023-06-19T04:45:53;8.48;;;7.57;;
20725;SDS011;10524;48.132;8.518;2023-06-19T04:48:18;11.05;;;8.27;;
20725;SDS011;10524;48.132;8.518;2023-06-19T04:50:44;8.35;;;7.55;;
20725;SDS011;10524;48.132;8.518;2023-06-19T04:53:10;10.13;;;7.38;;
20725;SDS011;10524;48.132;8.518;2023-06-19T04:55:36;8.77;;;7.88;;
20725;SDS011;10524;48.132;8.518;2023-06-19T04:58:02;8.30;;;7.40;;
20725;SDS011;10524;48.132;8.518;2023-06-19T05:00:28;8.57;;;7.60;;
20725;SDS011;10524;48.132;8.518;2023-06-19T05:02:54;7.90;;;7.18;;
20725;SDS011;10524;48.132;8.518;2023-06-19T05:05:24;6.47;;;5.88;;
20725;SDS011;10524;48.132;8.518;2023-06-19T05:07:51;6.38;;;5.78;;
20725;SDS011;10524;48.132;8.518;2023-06-19T05:10:17;7.03;;;6.32;;
20725;SDS011;10524;48.132;8.518;2023-06-19T05:12:44;6.70;;;5.75;;
20725;SDS011;10524;48.132;8.518;2023-06-19T05:15:10;7.00;;;6.30;;
20725;SDS011;10524;48.132;8.518;2023-06-19T05:17:36;6.32;;;5.53;;
20725;SDS011;10524;48.132;8.518;2023-06-19T05:20:04;5.95;;;5.40;;
20725;SDS011;10524;48.132;8.518;2023-06-19T05:22:32;6.07;;;5.47;;
20725;SDS011;10524;48.132;8.518;2023-06-19T05:24:59;6.50;;;5.90;;
20725;SDS011;10524;48.132;8.518;2023-06-19T05:27:25;6.13;;;5.60;;
20725;SDS011;10524;48.132;8.518;2023-06-19T05:29:50;6.35;;;5.65;;
20725;SDS011;10524;48.132;8.518;2023-06-19T05:32:16;6.35;;;5.72;;
20725;SDS011;10524;48.132;8.518;2023-06-19T05:34:42;6.72;;;6.13;;
20725;SDS011;10524;48.132;8.518;2023-06-19T05:37:08;6.25;;;5.65;;
20725;SDS011;10524;48.132;8.518;2023-06-19T05:39:33;6.70;;;5.65;;
20725;SDS011;10524;48.132;8.518;2023-06-19T05:41:59;6.30;;;5.70;;
20725;SDS011;10524;48.132;8.518;2023-06-19T05:44:24;6.47;;;5.88;;
20725;SDS011;10524;48.132;8.518;2023-06-19T05:46:50;5.95;;;5.30;;
20725;SDS011;10524;48.132;8.518;2023-06-19T05:49:16;5.55;;;5.05;;
20725;SDS011;10524;48.132;8.518;2023-06-19T05:51:42;5.68;;;5.18;;
20725;SDS011;10524;48.132;8.518;2023-06-19T05:54:08;6.15;;;5.22;;
20725;SDS011;10524;48.132;8.518;2023-06-19T05:56:34;5.50;;;5.00;;
20725;SDS011;10524;48.132;8.518;2023-06-19T05:59:01;5.15;;;4.40;;
20725;SDS011;10524;48.132;8.518;2023-06-19T06:01:28;4.97;;;4.45;;
20725;SDS011;10524;48.132;8.518;2023-06-19T06:03:57;5.05;;;4.55;;
20725;SDS011;10524;48.132;8.518;2023-06-19T06:06:23;5.43;;;4.70;;
20725;SDS011;10524;48.132;8.518;2023-06-19T06:08:49;5.65;;;4.70;;
20725;SDS011;10524;48.132;8.518;2023-06-19T06:11:16;6.28;;;4.97;;
20725;SDS011;10524;48.132;8.518;2023-06-19T06:13:42;5.40;;;4.90;;
20725;SDS011;10524;48.132;8.518;2023-06-19T06:16:08;4.88;;;4.47;;
20725;SDS011;10524;48.132;8.518;2023-06-19T06:18:33;5.72;;;4.60;;
20725;SDS011;10524;48.132;8.518;2023-06-19T06:20:59;5.93;;;4.78;;
20725;SDS011;10524;48.132;8.518;2023-06-19T06:23:25;5.93;;;4.75;;
20725;SDS011;10524;48.132;8.518;2023-06-19T06:25:50;7.10;;;5.30;;
20725;SDS011;10524;48.132;8.518;2023-06-19T06:28:16;5.20;;;4.70;;
20725;SDS011;10524;48.132;8.518;2023-06-19T06:30:42;6.07;;;4.88;;
20725;SDS011;10524;48.132;8.518;2023-06-19T06:33:08;5.50;;;5.00;;
20725;SDS011;10524;48.132;8.518;2023-06-19T06:35:34;5.53;;;5.03;;
20725;SDS011;10524;48.132;8.518;2023-06-19T06:38:01;6.18;;;5.57;;
20725;SDS011;10524;48.132;8.518;2023-06-19T06:40:27;5.82;;;5.32;;
20725;SDS011;10524;48.132;8.518;2023-06-19T06:42:54;6.18;;;5.57;;
20725;SDS011;10524;48.132;8.518;2023-06-19T06:45:20;6.60;;;5.47;;
20725;SDS011;10524;48.132;8.518;2023-06-19T06:47:45;6.05;;;5.47;;
20725;SDS011;10524;48.132;8.518;2023-06-19T06:50:11;6.55;;;5.95;;
20725;SDS011;10524;48.132;8.518;2023-06-19T06:52:37;6.50;;;5.90;;
20725;SDS011;10524;48.132;8.518;2023-06-19T06:55:03;5.68;;;5.18;;
20725;SDS011;10524;48.132;8.518;2023-06-19T06:57:29;6.53;;;5.85;;
20725;SDS011;10524;48.132;8.518;2023-06-19T06:59:55;6.65;;;5.50;;
20725;SDS011;10524;48.132;8.518;2023-06-19T07:02:21;5.30;;;4.90;;
20725;SDS011;10524;48.132;8.518;2023-06-19T07:04:47;5.60;;;4.97;;
20725;SDS011;10524;48.132;8.518;2023-06-19T07:07:12;5.40;;;4.97;;
20725;SDS011;10524;48.132;8.518;2023-06-19T07:09:38;5.80;;;5.30;;
20725;SDS011;10524;48.132;8.518;2023-06-19T07:12:04;5.70;;;5.20;;
20725;SDS011;10524;48.132;8.518;2023-06-19T07:14:33;5.40;;;4.90;;
20725;SDS011;10524;48.132;8.518;2023-06-19T07:16:58;6.15;;;5.55;;
20725;SDS011;10524;48.132;8.518;2023-06-19T07:19:24;5.75;;;5.25;;
20725;SDS011;10524;48.132;8.518;2023-06-19T07:21:50;6.13;;;5.35;;
20725;SDS011;10524;48.132;8.518;2023-06-19T07:24:16;5.63;;;5.03;;
20725;SDS011;10524;48.132;8.518;2023-06-19T07:26:42;5.63;;;5.13;;
20725;SDS011;10524;48.132;8.518;2023-06-19T07:29:07;5.88;;;5.28;;
20725;SDS011;10524;48.132;8.518;2023-06-19T07:31:33;5.85;;;5.35;;
20725;SDS011;10524;48.132;8.518;2023-06-19T07:33:58;5.90;;;5.30;;
20725;SDS011;10524;48.132;8.518;2023-06-19T07:36:24;6.85;;;5.50;;
20725;SDS011;10524;48.132;8.518;2023-06-19T07:38:51;6.47;;;5.53;;
20725;SDS011;10524;48.132;8.518;2023-06-19T07:41:18;5.53;;;5.10;;
20725;SDS011;10524;48.132;8.518;2023-06-19T07:43:43;6.13;;;5.53;;
20725;SDS011;10524;48.132;8.518;2023-06-19T07:46:09;6.30;;;5.80;;
20725;SDS011;10524;48.132;8.518;2023-06-19T07:48:35;6.72;;;5.10;;
20725;SDS011;10524;48.132;8.518;2023-06-19T07:51:01;6.82;;;6.13;;
20725;SDS011;10524;48.132;8.518;2023-06-19T07:53:26;6.97;;;5.70;;
20725;SDS011;10524;48.132;8.518;2023-06-19T07:55:52;6.45;;;5.85;;
20725;SDS011;10524;48.132;8.518;2023-06-19T07:58:18;6.50;;;5.90;;
20725;SDS011;10524;48.132;8.518;2023-06-19T08:00:43;6.05;;;5.55;;
20725;SDS011;10524;48.132;8.518;2023-06-19T08:03:09;6.55;;;5.25;;
20725;SDS011;10524;48.132;8.518;2023-06-19T08:05:35;7.25;;;5.68;;
20725;SDS011;10524;48.132;8.518;2023-06-19T08:08:00;6.25;;;5.38;;
20725;SDS011;10524;48.132;8.518;2023-06-19T08:10:26;5.93;;;5.38;;
20725;SDS011;10524;48.132;8.518;2023-06-19T08:12:52;6.70;;;5.35;;
20725;SDS011;10524;48.132;8.518;2023-06-19T08:15:18;5.55;;;5.05;;
20725;SDS011;10524;48.132;8.518;2023-06-19T08:17:43;9.50;;;5.38;;
20725;SDS011;10524;48.132;8.518;2023-06-19T08:20:09;5.15;;;4.75;;
20725;SDS011;10524;48.132;8.518;2023-06-19T08:22:35;10.23;;;5.57;;
20725;SDS011;10524;48.132;8.518;2023-06-19T08:25:01;5.10;;;4.60;;
20725;SDS011;10524;48.132;8.518;2023-06-19T08:27:27;5.28;;;4.82;;
20725;SDS011;10524;48.132;8.518;2023-06-19T08:29:53;6.68;;;5.20;;
20725;SDS011;10524;48.132;8.518;2023-06-19T08:32:19;5.57;;;4.60;;
20725;SDS011;10524;48.132;8.518;2023-06-19T08:34:44;4.90;;;4.43;;
20725;SDS011;10524;48.132;8.518;2023-06-19T08:37:10;6.30;;;4.28;;
20725;SDS011;10524;48.132;8.518;2023-06-19T08:39:36;8.10;;;4.80;;
20725;SDS011;10524;48.132;8.518;2023-06-19T08:42:05;5.03;;;3.95;;
20725;SDS011;10524;48.132;8.518;2023-06-19T08:44:32;4.82;;;4.43;;
20725;SDS011;10524;48.132;8.518;2023-06-19T08:46:59;4.70;;;4.30;;
20725;SDS011;10524;48.132;8.518;2023-06-19T08:49:25;4.68;;;4.05;;
20725;SDS011;10524;48.132;8.518;2023-06-19T08:51:50;6.88;;;4.00;;
20725;SDS011;10524;48.132;8.518;2023-06-19T08:54:17;4.93;;;4.32;;
20725;SDS011;10524;48.132;8.518;2023-06-19T08:56:42;4.78;;;4.38;;
20725;SDS011;10524;48.132;8.518;2023-06-19T08:59:09;6.07;;;4.60;;
20725;SDS011;10524;48.132;8.518;2023-06-19T09:01:35;4.90;;;4.50;;
20725;SDS011;10524;48.132;8.518;2023-06-19T09:04:07;5.00;;;4.50;;
20725;SDS011;10524;48.132;8.518;2023-06-19T09:06:46;5.18;;;4.68;;
20725;SDS011;10524;48.132;8.518;2023-06-19T09:09:16;4.88;;;4.20;;
20725;SDS011;10524;48.132;8.518;2023-06-19T09:11:42;5.15;;;4.63;;
20725;SDS011;10524;48.132;8.518;2023-06-19T09:14:11;4.90;;;4.40;;
20725;SDS011;10524;48.132;8.518;2023-06-19T09:16:38;6.90;;;4.50;;
20725;SDS011;10524;48.132;8.518;2023-06-19T09:19:04;5.43;;;4.65;;
20725;SDS011;10524;48.132;8.518;2023-06-19T09:21:30;4.60;;;4.20;;
20725;SDS011;10524;48.132;8.518;2023-06-19T09:24:02;5.90;;;4.22;;
20725;SDS011;10524;48.132;8.518;2023-06-19T09:26:31;3.05;;;2.78;;
20725;SDS011;10524;48.132;8.518;2023-06-19T09:28:57;2.70;;;2.50;;
20725;SDS011;10524;48.132;8.518;2023-06-19T09:31:31;4.10;;;2.50;;
20725;SDS011;10524;48.132;8.518;2023-06-19T09:33:58;2.67;;;2.47;;
20725;SDS011;10524;48.132;8.518;2023-06-19T09:36:24;2.70;;;2.50;;
20725;SDS011;10524;48.132;8.518;2023-06-19T09:38:51;2.28;;;2.17;;
20725;SDS011;10524;48.132;8.518;2023-06-19T09:41:17;3.40;;;2.45;;
20725;SDS011;10524;48.132;8.518;2023-06-19T09:43:46;3.13;;;2.50;;
20725;SDS011;10524;48.132;8.518;2023-06-19T09:46:12;2.67;;;2.47;;
20725;SDS011;10524;48.132;8.518;2023-06-19T09:48:44;4.40;;;3.65;;
20725;SDS011;10524;48.132;8.518;2023-06-19T09:51:18;4.15;;;3.80;;
20725;SDS011;10524;48.132;8.518;2023-06-19T09:53:45;3.42;;;3.20;;
20725;SDS011;10524;48.132;8.518;2023-06-19T09:56:13;4.28;;;3.70;;
20725;SDS011;10524;48.132;8.518;2023-06-19T09:58:39;4.10;;;3.80;;
20725;SDS011;10524;48.132;8.518;2023-06-19T10:01:07;4.20;;;3.80;;
20725;SDS011;10524;48.132;8.518;2023-06-19T10:03:33;6.15;;;3.80;;
20725;SDS011;10524;48.132;8.518;2023-06-19T10:06:00;4.40;;;4.00;;
20725;SDS011;10524;48.132;8.518;2023-06-19T10:08:47;3.95;;;3.63;;
20725;SDS011;10524;48.132;8.518;2023-06-19T10:11:13;4.40;;;3.92;;
20725;SDS011;10524;48.132;8.518;2023-06-19T10:13:42;6.07;;;3.60;;
20725;SDS011;10524;48.132;8.518;2023-06-19T10:16:18;4.18;;;3.50;;
20725;SDS011;10524;48.132;8.518;2023-06-19T10:18:46;4.38;;;3.30;;
20725;SDS011;10524;48.132;8.518;2023-06-19T10:21:19;4.03;;;3.40;;
20725;SDS011;10524;48.132;8.518;2023-06-19T10:23:55;3.50;;;3.20;;
20725;SDS011;10524;48.132;8.518;2023-06-19T10:26:32;3.85;;;3.45;;
20725;SDS011;10524;48.132;8.518;2023-06-19T10:29:00;4.05;;;3.60;;
20725;SDS011;10524;48.132;8.518;2023-06-19T10:31:26;4.28;;;3.70;;
20725;SDS011;10524;48.132;8.518;2023-06-19T10:33:53;3.83;;;3.50;;
20725;SDS011;10524;48.132;8.518;2023-06-19T10:36:22;3.65;;;3.35;;
20725;SDS011;10524;48.132;8.518;2023-06-19T10:38:51;3.78;;;3.47;;
20725;SDS011;10524;48.132;8.518;2023-06-19T10:41:17;4.00;;;3.70;;
20725;SDS011;10524;48.132;8.518;2023-06-19T10:43:57;3.50;;;3.20;;
20725;SDS011;10524;48.132;8.518;2023-06-19T10:46:28;3.55;;;3.25;;
20725;SDS011;10524;48.132;8.518;2023-06-19T10:48:55;4.00;;;3.28;;
20725;SDS011;10524;48.132;8.518;2023-06-19T10:51:26;3.17;;;2.90;;
20725;SDS011;10524;48.132;8.518;2023-06-19T10:53:53;3.50;;;3.20;;
20725;SDS011;10524;48.132;8.518;2023-06-19T10:56:21;4.13;;;3.17;;
20725;SDS011;10524;48.132;8.518;2023-06-19T10:58:47;4.45;;;2.97;;
20725;SDS011;10524;48.132;8.518;2023-06-19T11:01:13;3.30;;;3.00;;
20725;SDS011;10524;48.132;8.518;2023-06-19T11:03:40;3.35;;;3.05;;
20725;SDS011;10524;48.132;8.518;2023-06-19T11:06:06;3.92;;;2.90;;
20725;SDS011;10524;48.132;8.518;2023-06-19T11:08:32;3.85;;;3.10;;
20725;SDS011;10524;48.132;8.518;2023-06-19T11:11:00;3.90;;;3.08;;
20725;SDS011;10524;48.132;8.518;2023-06-19T11:13:26;3.40;;;3.10;;
20725;SDS011;10524;48.132;8.518;2023-06-19T11:15:51;3.38;;;3.17;;
20725;SDS011;10524;48.132;8.518;2023-06-19T11:18:17;3.30;;;2.95;;
20725;SDS011;10524;48.132;8.518;2023-06-19T11:20:47;5.40;;;3.10;;
20725;SDS011;10524;48.132;8.518;2023-06-19T11:23:15;3.85;;;3.28;;
20725;SDS011;10524;48.132;8.518;2023-06-19T11:25:41;3.10;;;2.90;;
20725;SDS011;10524;48.132;8.518;2023-06-19T11:28:12;3.50;;;3.20;;
20725;SDS011;10524;48.132;8.518;2023-06-19T11:30:39;3.83;;;3.40;;
20725;SDS011;10524;48.132;8.518;2023-06-19T11:33:18;3.20;;;3.00;;
20725;SDS011;10524;48.132;8.518;2023-06-19T11:35:48;3.45;;;3.15;;
20725;SDS011;10524;48.132;8.518;2023-06-19T11:38:24;3.45;;;3.15;;
20725;SDS011;10524;48.132;8.518;2023-06-19T11:40:52;3.50;;;3.20;;
20725;SDS011;10524;48.132;8.518;2023-06-19T11:46:16;3.65;;;3.35;;
20725;SDS011;10524;48.132;8.518;2023-06-19T11:48:41;3.83;;;3.53;;
20725;SDS011;10524;48.132;8.518;2023-06-19T11:51:06;3.15;;;2.95;;
20725;SDS011;10524;48.132;8.518;2023-06-19T11:53:33;3.83;;;3.40;;
20725;SDS011;10524;48.132;8.518;2023-06-19T11:55:58;3.58;;;3.28;;
20725;SDS011;10524;48.132;8.518;2023-06-19T11:58:24;4.65;;;3.65;;
20725;SDS011;10524;48.132;8.518;2023-06-19T12:00:50;3.72;;;3.42;;
20725;SDS011;10524;48.132;8.518;2023-06-19T12:03:16;4.15;;;3.75;;
20725;SDS011;10524;48.132;8.518;2023-06-19T12:05:42;4.00;;;3.60;;
20725;SDS011;10524;48.132;8.518;2023-06-19T12:08:07;4.63;;;3.70;;
20725;SDS011;10524;48.132;8.518;2023-06-19T12:10:33;4.50;;;3.72;;
20725;SDS011;10524;48.132;8.518;2023-06-19T12:12:59;4.43;;;3.55;;
20725;SDS011;10524;48.132;8.518;2023-06-19T12:15:25;5.45;;;4.00;;
20725;SDS011;10524;48.132;8.518;2023-06-19T12:17:51;4.32;;;3.50;;
20725;SDS011;10524;48.132;8.518;2023-06-19T12:20:17;4.05;;;3.65;;
20725;SDS011;10524;48.132;8.518;2023-06-19T12:22:43;4.00;;;3.70;;
20725;SDS011;10524;48.132;8.518;2023-06-19T12:25:11;4.03;;;3.63;;
20725;SDS011;10524;48.132;8.518;2023-06-19T12:27:37;4.20;;;3.80;;
20725;SDS011;10524;48.132;8.518;2023-06-19T12:30:04;4.72;;;3.72;;
20725;SDS011;10524;48.132;8.518;2023-06-19T12:32:30;4.13;;;3.83;;
20725;SDS011;10524;48.132;8.518;2023-06-19T12:34:55;3.95;;;3.65;;
20725;SDS011;10524;48.132;8.518;2023-06-19T12:37:21;4.15;;;3.85;;
20725;SDS011;10524;48.132;8.518;2023-06-19T12:39:47;4.10;;;3.80;;
20725;SDS011;10524;48.132;8.518;2023-06-19T12:42:14;3.90;;;3.60;;
20725;SDS011;10524;48.132;8.518;2023-06-19T12:44:40;3.70;;;3.40;;
20725;SDS011;10524;48.132;8.518;2023-06-19T12:47:06;4.45;;;4.00;;
20725;SDS011;10524;48.132;8.518;2023-06-19T12:49:32;4.63;;;4.10;;
20725;SDS011;10524;48.132;8.518;2023-06-19T12:51:58;3.90;;;3.60;;
20725;SDS011;10524;48.132;8.518;2023-06-19T12:54:24;4.22;;;3.83;;
20725;SDS011;10524;48.132;8.518;2023-06-19T12:56:50;5.80;;;3.83;;
20725;SDS011;10524;48.132;8.518;2023-06-19T12:59:16;3.83;;;3.53;;
20725;SDS011;10524;48.132;8.518;2023-06-19T13:01:42;4.00;;;3.70;;
20725;SDS011;10524;48.132;8.518;2023-06-19T13:04:08;4.40;;;4.00;;
20725;SDS011;10524;48.132;8.518;2023-06-19T13:06:33;4.22;;;3.92;;
20725;SDS011;10524;48.132;8.518;2023-06-19T13:09:00;4.13;;;3.72;;
20725;SDS011;10524;48.132;8.518;2023-06-19T13:11:27;4.35;;;3.90;;
20725;SDS011;10524;48.132;8.518;2023-06-19T13:13:52;5.50;;;3.78;;
20725;SDS011;10524;48.132;8.518;2023-06-19T13:16:18;6.88;;;4.00;;
20725;SDS011;10524;48.132;8.518;2023-06-19T13:18:44;6.38;;;4.43;;
20725;SDS011;10524;48.132;8.518;2023-06-19T13:21:10;6.78;;;4.00;;
20725;SDS011;10524;48.132;8.518;2023-06-19T13:23:36;5.97;;;4.55;;
20725;SDS011;10524;48.132;8.518;2023-06-19T13:26:02;4.90;;;3.70;;
20725;SDS011;10524;48.132;8.518;2023-06-19T13:28:28;4.30;;;4.00;;
20725;SDS011;10524;48.132;8.518;2023-06-19T13:30:53;4.50;;;4.10;;
20725;SDS011;10524;48.132;8.518;2023-06-19T13:33:19;5.07;;;4.18;;
20725;SDS011;10524;48.132;8.518;2023-06-19T13:35:44;4.22;;;3.83;;
20725;SDS011;10524;48.132;8.518;2023-06-19T13:38:10;4.90;;;3.78;;
20725;SDS011;10524;48.132;8.518;2023-06-19T13:40:36;4.55;;;3.80;;
20725;SDS011;10524;48.132;8.518;2023-06-19T13:43:01;4.88;;;3.63;;
20725;SDS011;10524;48.132;8.518;2023-06-19T13:45:28;4.05;;;3.65;;
20725;SDS011;10524;48.132;8.518;2023-06-19T13:47:55;4.15;;;3.85;;
20725;SDS011;10524;48.132;8.518;2023-06-19T13:50:22;4.20;;;3.80;;
20725;SDS011;10524;48.132;8.518;2023-06-19T13:52:48;4.45;;;4.05;;
20725;SDS011;10524;48.132;8.518;2023-06-19T13:55:14;5.78;;;4.50;;
20725;SDS011;10524;48.132;8.518;2023-06-19T13:57:41;4.60;;;4.20;;
20725;SDS011;10524;48.132;8.518;2023-06-19T14:00:08;5.47;;;4.97;;
20725;SDS011;10524;48.132;8.518;2023-06-19T14:02:35;6.00;;;4.80;;
20725;SDS011;10524;48.132;8.518;2023-06-19T14:05:06;7.63;;;5.80;;
20725;SDS011;10524;48.132;8.518;2023-06-19T14:07:34;7.47;;;6.75;;
20725;SDS011;10524;48.132;8.518;2023-06-19T14:10:00;9.07;;;6.90;;
20725;SDS011;10524;48.132;8.518;2023-06-19T14:12:27;10.98;;;7.05;;
20725;SDS011;10524;48.132;8.518;2023-06-19T14:14:53;10.10;;;6.95;;
20725;SDS011;10524;48.132;8.518;2023-06-19T14:17:19;10.82;;;6.93;;
20725;SDS011;10524;48.132;8.518;2023-06-19T14:19:45;8.90;;;7.22;;
20725;SDS011;10524;48.132;8.518;2023-06-19T14:22:11;7.22;;;6.53;;
20725;SDS011;10524;48.132;8.518;2023-06-19T14:24:36;7.20;;;6.50;;
20725;SDS011;10524;48.132;8.518;2023-06-19T14:27:02;9.95;;;6.50;;
20725;SDS011;10524;48.132;8.518;2023-06-19T14:29:28;11.35;;;7.10;;
20725;SDS011;10524;48.132;8.518;2023-06-19T14:31:54;7.03;;;5.93;;
20725;SDS011;10524;48.132;8.518;2023-06-19T14:34:19;7.00;;;5.65;;
20725;SDS011;10524;48.132;8.518;2023-06-19T14:36:45;6.15;;;5.57;;
20725;SDS011;10524;48.132;8.518;2023-06-19T14:39:11;6.90;;;5.55;;
20725;SDS011;10524;48.132;8.518;2023-06-19T14:41:37;6.70;;;5.63;;
20725;SDS011;10524;48.132;8.518;2023-06-19T14:44:04;6.63;;;5.68;;
20725;SDS011;10524;48.132;8.518;2023-06-19T14:46:30;8.68;;;5.90;;
20725;SDS011;10524;48.132;8.518;2023-06-19T14:48:57;7.85;;;5.55;;
20725;SDS011;10524;48.132;8.518;2023-06-19T14:51:26;7.90;;;5.25;;